Time;durP1;ratioP1;P1;durP2;ratioP2;P2;SDS_P1;SDS_P2;PMS_P1;PMS_P2;Temp;Humidity;BMP_temperature;BMP_pressure;BME280_temperature;BME280_humidity;BME280_pressure;Samples;Min_cycle;Max_cycle;Signal;HPM_P1;HPM_P2
2023/01/09 00:01:48;;;;;;;4.88;1.63;;;10.70;76.90;;;;;;5114307;28;20356;-75
2023/01/09 00:04:14;;;;;;;3.33;1.48;;;10.70;77.00;;;;;;5114122;28;20085;-74
2023/01/09 00:06:42;;;;;;;3.25;1.55;;;10.70;77.70;;;;;;5100345;28;20397;-74
2023/01/09 00:09:09;;;;;;;3.65;1.48;;;10.60;77.10;;;;;;5107263;28;20500;-74
2023/01/09 00:11:36;;;;;;;6.18;1.45;;;10.60;77.20;;;;;;5113713;28;20032;-74
2023/01/09 00:14:02;;;;;;;2.80;0.82;;;10.60;77.20;;;;;;5100693;28;20028;-74
2023/01/09 00:16:28;;;;;;;3.10;1.40;;;10.60;77.20;;;;;;5114503;28;20055;-74
2023/01/09 00:18:54;;;;;;;3.97;1.23;;;10.60;77.10;;;;;;5109618;28;20112;-74
2023/01/09 00:21:19;;;;;;;2.70;1.30;;;10.60;77.10;;;;;;5115254;28;20059;-74
2023/01/09 00:23:46;;;;;;;4.28;1.20;;;10.60;77.10;;;;;;5109729;28;20456;-74
2023/01/09 00:26:19;;;;;;;2.15;0.90;;;10.60;77.20;;;;;;5114138;28;20467;-74
2023/01/09 00:28:46;;;;;;;4.03;1.20;;;10.60;77.20;;;;;;5111078;28;20118;-74
2023/01/09 00:31:12;;;;;;;2.78;1.20;;;10.50;77.10;;;;;;5079619;28;20030;-74
2023/01/09 00:33:42;;;;;;;5.10;1.42;;;10.50;77.10;;;;;;5113827;28;20016;-75
2023/01/09 00:36:09;;;;;;;3.75;1.30;;;10.50;77.10;;;;;;5115779;28;20092;-74
2023/01/09 00:38:36;;;;;;;1.10;0.75;;;10.50;77.00;;;;;;5109451;28;20130;-75
2023/01/09 00:41:04;;;;;;;2.08;0.98;;;10.40;77.00;;;;;;5088790;28;20061;-74
2023/01/09 00:43:35;;;;;;;3.40;0.70;;;10.40;77.00;;;;;;5112836;28;20043;-74
2023/01/09 00:46:05;;;;;;;2.15;0.80;;;10.40;77.10;;;;;;5094134;28;20352;-75
2023/01/09 00:48:33;;;;;;;3.00;0.80;;;10.40;77.00;;;;;;5102682;28;20031;-75
2023/01/09 00:50:59;;;;;;;1.75;1.00;;;10.40;76.90;;;;;;5113507;28;20038;-74
2023/01/09 00:53:30;;;;;;;2.33;0.82;;;10.40;76.90;;;;;;5107045;28;20028;-74
2023/01/09 00:56:03;;;;;;;1.58;0.80;;;10.30;76.80;;;;;;5104544;28;20024;-75
2023/01/09 00:58:32;;;;;;;1.73;0.82;;;10.30;76.70;;;;;;5118527;28;20051;-75
2023/01/09 01:00:58;;;;;;;1.58;0.73;;;10.30;76.60;;;;;;5099818;28;20329;-74
2023/01/09 01:03:23;;;;;;;2.00;0.90;;;10.30;76.60;;;;;;5119066;28;20038;-75
2023/01/09 01:08:34;;;;;;;1.88;0.63;;;10.20;76.40;;;;;;5107151;28;20027;-75
2023/01/09 01:11:04;;;;;;;1.77;0.73;;;10.20;76.40;;;;;;5116829;28;20038;-74
2023/01/09 01:13:30;;;;;;;2.97;0.82;;;10.20;76.40;;;;;;5104917;28;20414;-75
2023/01/09 01:15:56;;;;;;;1.52;0.65;;;10.10;76.40;;;;;;5117006;28;20020;-73
2023/01/09 01:18:22;;;;;;;1.95;0.70;;;10.10;76.30;;;;;;5101679;28;20099;-74
2023/01/09 01:20:48;;;;;;;1.52;0.80;;;10.10;76.40;;;;;;5126016;28;20051;-75
2023/01/09 01:23:13;;;;;;;1.52;1.00;;;10.10;76.40;;;;;;5118803;28;20380;-74
2023/01/09 01:25:40;;;;;;;1.15;0.60;;;10.00;76.30;;;;;;5104569;28;20043;-74
2023/01/09 01:28:07;;;;;;;2.45;1.00;;;10.00;76.30;;;;;;5134221;27;20039;-74
2023/01/09 01:30:37;;;;;;;1.85;1.00;;;10.00;76.30;;;;;;5108689;28;20028;-74
2023/01/09 01:33:03;;;;;;;2.67;1.10;;;10.00;76.40;;;;;;5112239;28;20019;-74
2023/01/09 01:35:29;;;;;;;3.30;1.08;;;9.90;76.30;;;;;;5108891;28;20028;-75
2023/01/09 01:37:54;;;;;;;2.90;1.15;;;9.90;76.30;;;;;;5118434;28;20035;-75
2023/01/09 01:40:20;;;;;;;1.75;0.90;;;9.90;76.30;;;;;;5111676;28;20042;-74
2023/01/09 01:42:51;;;;;;;2.50;0.90;;;9.90;76.30;;;;;;5117654;28;20066;-75
2023/01/09 01:45:20;;;;;;;4.65;1.00;;;9.90;76.30;;;;;;5113614;28;20081;-75
2023/01/09 01:47:49;;;;;;;4.80;1.20;;;9.90;76.30;;;;;;5117334;28;20016;-74
2023/01/09 01:50:23;;;;;;;2.80;1.27;;;9.90;76.40;;;;;;5114643;28;20027;-75
2023/01/09 01:53:05;;;;;;;2.63;0.93;;;9.80;76.30;;;;;;5099881;28;20023;-75
2023/01/09 01:55:39;;;;;;;3.33;1.25;;;9.80;76.30;;;;;;5111630;28;20027;-75
2023/01/09 01:58:08;;;;;;;3.10;1.30;;;9.80;76.40;;;;;;5117672;28;20371;-75
2023/01/09 02:00:39;;;;;;;2.35;1.13;;;9.80;76.50;;;;;;5097430;28;20154;-75
2023/01/09 02:03:06;;;;;;;2.92;1.08;;;9.80;76.50;;;;;;5116490;28;20136;-74
2023/01/09 02:05:32;;;;;;;3.88;1.60;;;9.80;76.50;;;;;;5109083;28;20329;-74
2023/01/09 02:07:58;;;;;;;3.90;1.30;;;9.80;76.50;;;;;;5115279;28;20085;-75
2023/01/09 02:10:24;;;;;;;3.05;1.40;;;9.80;76.50;;;;;;5112681;28;20452;-75
2023/01/09 02:12:50;;;;;;;3.30;1.20;;;9.70;76.50;;;;;;5097166;28;20020;-74
2023/01/09 02:15:17;;;;;;;2.03;1.00;;;9.70;76.60;;;;;;5116083;28;20047;-75
2023/01/09 02:17:43;;;;;;;6.90;1.50;;;9.70;76.60;;;;;;5110367;28;20032;-74
2023/01/09 02:20:28;;;;;;;2.78;1.27;;;9.70;76.70;;;;;;5116542;28;20051;-74
2023/01/09 02:23:25;;;;;;;1.92;1.20;;;9.70;76.60;;;;;;5115591;28;20496;-74
2023/01/09 02:26:09;;;;;;;3.90;1.45;;;9.60;76.50;;;;;;5085667;28;20039;-74
2023/01/09 02:29:12;;;;;;;4.07;1.30;;;9.60;76.50;;;;;;5115566;28;20039;-74
2023/01/09 02:32:02;;;;;;;3.83;1.58;;;9.60;76.50;;;;;;5104071;28;20022;-74
2023/01/09 02:34:42;;;;;;;1.80;1.17;;;9.60;76.60;;;;;;5116262;28;20031;-74
2023/01/09 02:37:43;;;;;;;3.72;1.30;;;9.50;76.50;;;;;;5108713;28;20020;-74
2023/01/09 02:40:27;;;;;;;4.15;1.20;;;9.60;76.50;;;;;;5074783;28;20027;-74
2023/01/09 02:42:56;;;;;;;3.05;1.33;;;9.50;76.60;;;;;;5109618;28;20038;-74
2023/01/09 02:45:22;;;;;;;2.25;1.10;;;9.50;76.70;;;;;;5117331;28;20027;-74
2023/01/09 02:47:48;;;;;;;4.53;1.58;;;9.50;76.70;;;;;;5099105;28;20055;-74
2023/01/09 02:50:23;;;;;;;5.18;1.30;;;9.50;76.70;;;;;;5116631;28;20070;-74
2023/01/09 02:53:01;;;;;;;4.35;1.40;;;9.50;76.80;;;;;;5112968;28;20027;-74
2023/01/09 02:56:03;;;;;;;5.20;1.40;;;9.50;76.80;;;;;;5117119;28;20501;-75
2023/01/09 02:59:02;;;;;;;4.32;1.45;;;9.50;76.80;;;;;;5112732;27;20397;-75
2023/01/09 03:01:54;;;;;;;2.92;1.30;;;9.50;76.70;;;;;;5114237;28;20106;-74
2023/01/09 03:04:39;;;;;;;8.45;1.38;;;9.50;76.80;;;;;;5098030;28;20051;-74
2023/01/09 03:07:14;;;;;;;3.78;1.55;;;9.50;76.80;;;;;;5116000;28;20035;-74
2023/01/09 03:09:42;;;;;;;2.50;1.00;;;9.50;76.80;;;;;;5115012;28;20043;-74
2023/01/09 03:12:17;;;;;;;4.63;1.58;;;9.40;76.80;;;;;;5116050;28;20023;-74
2023/01/09 03:14:56;;;;;;;4.57;1.50;;;9.40;76.80;;;;;;5113303;28;20035;-74
2023/01/09 03:17:36;;;;;;;4.32;1.52;;;9.40;76.90;;;;;;5108215;28;20496;-74
2023/01/09 03:20:05;;;;;;;5.28;1.33;;;9.40;76.90;;;;;;5109340;28;20122;-74
2023/01/09 03:22:31;;;;;;;6.25;1.60;;;9.40;76.90;;;;;;5115191;28;20081;-74
2023/01/09 03:24:57;;;;;;;4.35;1.60;;;9.40;76.90;;;;;;5108517;28;20024;-74
2023/01/09 03:27:23;;;;;;;2.95;1.20;;;9.40;76.90;;;;;;5108986;28;20502;-74
2023/01/09 03:29:50;;;;;;;7.45;1.70;;;9.40;76.80;;;;;;5109611;27;20023;-74
2023/01/09 03:32:16;;;;;;;3.00;1.17;;;9.40;76.80;;;;;;5100232;28;20080;-74
2023/01/09 03:34:42;;;;;;;4.57;1.40;;;9.40;76.90;;;;;;5111868;28;20106;-75
2023/01/09 03:37:08;;;;;;;5.32;1.90;;;9.30;76.90;;;;;;5087286;28;20050;-74
2023/01/09 03:39:34;;;;;;;5.65;1.63;;;9.30;76.90;;;;;;5104217;27;20270;-74
2023/01/09 03:42:00;;;;;;;4.70;1.67;;;9.30;76.90;;;;;;5109401;28;20019;-74
2023/01/09 03:44:27;;;;;;;4.40;1.58;;;9.30;76.90;;;;;;5106146;28;20027;-74
2023/01/09 03:46:52;;;;;;;2.78;1.40;;;9.20;76.80;;;;;;5115992;28;20501;-74
2023/01/09 03:49:20;;;;;;;7.00;1.70;;;9.30;76.90;;;;;;5086037;28;20108;-74
2023/01/09 03:51:46;;;;;;;5.40;1.70;;;9.20;76.80;;;;;;5107117;28;20027;-74
2023/01/09 03:54:12;;;;;;;4.28;1.65;;;9.20;76.90;;;;;;5104604;27;20461;-74
2023/01/09 03:56:37;;;;;;;6.80;1.90;;;9.20;76.90;;;;;;5114118;28;20027;-74
2023/01/09 03:59:03;;;;;;;5.10;1.60;;;9.20;77.50;;;;;;5094461;28;20434;-74
2023/01/09 04:01:29;;;;;;;5.78;1.58;;;9.20;76.80;;;;;;5113681;28;20057;-74
2023/01/09 04:03:55;;;;;;;5.05;1.30;;;9.10;76.80;;;;;;5126630;28;20036;-74
2023/01/09 04:06:21;;;;;;;4.07;1.42;;;9.10;76.80;;;;;;5117718;28;20039;-74
2023/01/09 04:08:46;;;;;;;3.92;1.65;;;9.10;76.90;;;;;;5109582;28;20035;-74
2023/01/09 04:11:12;;;;;;;5.57;2.00;;;9.10;76.90;;;;;;5101089;28;20085;-76
2023/01/09 04:13:38;;;;;;;5.18;1.45;;;9.10;76.90;;;;;;5114160;28;20015;-75
2023/01/09 04:16:04;;;;;;;7.43;1.92;;;9.10;76.90;;;;;;5111217;28;20032;-75
2023/01/09 04:18:30;;;;;;;4.85;1.60;;;9.10;76.90;;;;;;5110831;28;20036;-74
2023/01/09 04:20:56;;;;;;;4.05;1.55;;;9.10;76.90;;;;;;5107019;28;20047;-74
2023/01/09 04:23:21;;;;;;;3.92;1.38;;;9.00;76.80;;;;;;5110969;28;20111;-74
2023/01/09 04:25:47;;;;;;;4.22;1.42;;;9.00;76.90;;;;;;5104126;28;20046;-74
2023/01/09 04:28:13;;;;;;;4.97;1.70;;;9.00;76.90;;;;;;5112995;28;20103;-74
2023/01/09 04:30:39;;;;;;;6.53;1.42;;;9.00;76.90;;;;;;5112070;28;20108;-74
2023/01/09 04:33:05;;;;;;;5.57;1.50;;;9.00;77.50;;;;;;5112843;28;20031;-74
2023/01/09 04:35:30;;;;;;;5.38;1.70;;;9.00;76.90;;;;;;5105017;28;20375;-74
2023/01/09 04:37:56;;;;;;;3.70;1.25;;;9.00;76.90;;;;;;5114175;28;20089;-74
2023/01/09 04:40:22;;;;;;;5.95;1.58;;;9.00;76.90;;;;;;5097433;28;20097;-74
2023/01/09 04:42:48;;;;;;;4.22;1.58;;;8.90;76.90;;;;;;5102191;28;20080;-74
2023/01/09 04:45:14;;;;;;;4.50;1.65;;;8.90;76.90;;;;;;5113785;28;20027;-74
2023/01/09 04:47:40;;;;;;;4.35;1.65;;;8.90;77.00;;;;;;5110041;28;20020;-74
2023/01/09 04:50:06;;;;;;;6.97;1.80;;;8.90;77.00;;;;;;5103969;28;20040;-74
2023/01/09 04:52:32;;;;;;;6.20;1.67;;;8.90;77.00;;;;;;5111101;28;20024;-74
2023/01/09 04:54:58;;;;;;;6.72;1.90;;;8.90;77.00;;;;;;5113056;28;20133;-74
2023/01/09 04:57:23;;;;;;;11.65;2.42;;;8.90;77.00;;;;;;5111067;28;20038;-74
2023/01/09 04:59:49;;;;;;;5.07;1.80;;;8.90;77.00;;;;;;5092854;28;20020;-74
2023/01/09 05:02:15;;;;;;;6.47;2.20;;;8.90;77.00;;;;;;5093980;28;20123;-74
2023/01/09 05:04:41;;;;;;;5.68;2.00;;;8.90;77.00;;;;;;5102635;28;20102;-74
2023/01/09 05:07:06;;;;;;;6.72;1.95;;;8.90;77.00;;;;;;5087235;28;20031;-74
2023/01/09 05:09:33;;;;;;;6.03;1.70;;;8.90;76.90;;;;;;5110009;28;20024;-74
2023/01/09 05:11:58;;;;;;;5.75;2.05;;;8.90;77.00;;;;;;5100260;28;20140;-74
2023/01/09 05:14:24;;;;;;;5.13;1.83;;;9.00;77.00;;;;;;5087826;28;20036;-74
2023/01/09 05:16:50;;;;;;;4.70;1.65;;;9.00;77.00;;;;;;5109057;28;20119;-74
2023/01/09 05:19:17;;;;;;;6.47;2.00;;;9.00;77.00;;;;;;5108208;28;20055;-74
2023/01/09 05:21:43;;;;;;;4.43;1.63;;;9.00;77.00;;;;;;5111641;28;21534;-74
2023/01/09 05:24:08;;;;;;;8.77;2.45;;;9.00;76.90;;;;;;5106745;28;20027;-74
2023/01/09 05:26:34;;;;;;;8.38;1.88;;;9.00;76.90;;;;;;5112321;28;20023;-75
2023/01/09 05:29:00;;;;;;;4.57;1.70;;;9.00;76.90;;;;;;5109301;28;20042;-74
2023/01/09 05:31:26;;;;;;;10.23;1.77;;;9.00;76.90;;;;;;5099077;28;20118;-74
2023/01/09 05:33:52;;;;;;;5.53;1.80;;;9.00;76.90;;;;;;5116431;28;20036;-75
2023/01/09 05:36:18;;;;;;;5.10;1.80;;;9.00;76.80;;;;;;5116018;28;20024;-74
2023/01/09 05:38:44;;;;;;;4.70;1.70;;;9.00;76.80;;;;;;5106500;28;20148;-74
2023/01/09 05:41:10;;;;;;;4.32;1.50;;;9.10;76.80;;;;;;5115707;28;20032;-75
2023/01/09 05:43:36;;;;;;;5.03;1.63;;;9.10;76.80;;;;;;5116639;28;20057;-75
2023/01/09 05:46:02;;;;;;;3.88;1.67;;;9.10;76.70;;;;;;5100513;28;20053;-74
2023/01/09 05:48:28;;;;;;;6.72;1.65;;;9.00;76.60;;;;;;5110371;27;20016;-75
2023/01/09 05:50:54;;;;;;;5.22;1.40;;;9.00;76.70;;;;;;5112490;28;20060;-75
2023/01/09 05:53:20;;;;;;;5.97;1.45;;;9.00;76.80;;;;;;5113406;28;20360;-75
2023/01/09 05:55:45;;;;;;;5.15;1.60;;;9.00;76.90;;;;;;5130357;27;20023;-74
2023/01/09 05:58:11;;;;;;;7.47;1.73;;;9.00;76.90;;;;;;5112659;28;20027;-74
2023/01/09 06:00:37;;;;;;;4.55;1.73;;;9.00;76.90;;;;;;5109653;28;20038;-75
2023/01/09 06:03:03;;;;;;;5.43;1.92;;;9.00;76.90;;;;;;5104006;28;20056;-75
2023/01/09 06:05:28;;;;;;;5.65;1.73;;;9.00;76.90;;;;;;5103253;28;20034;-74
2023/01/09 06:07:54;;;;;;;5.45;1.60;;;9.00;76.90;;;;;;5116529;28;20036;-73
2023/01/09 06:10:20;;;;;;;5.90;1.52;;;9.00;77.00;;;;;;5101399;28;20020;-72
2023/01/09 06:12:48;;;;;;;4.65;1.52;;;9.00;77.00;;;;;;5133276;27;20046;-72
2023/01/09 06:15:16;;;;;;;7.47;2.00;;;9.00;77.00;;;;;;5122923;28;20123;-73
2023/01/09 06:17:43;;;;;;;5.65;1.40;;;9.00;77.10;;;;;;5118271;28;20031;-72
2023/01/09 06:20:10;;;;;;;5.88;1.70;;;9.00;77.10;;;;;;5115623;28;20048;-73
2023/01/09 06:22:36;;;;;;;6.15;1.58;;;9.00;77.00;;;;;;5117294;28;20039;-73
2023/01/09 06:25:02;;;;;;;5.70;1.60;;;9.00;76.90;;;;;;5116439;28;20027;-73
2023/01/09 06:27:28;;;;;;;3.72;1.30;;;9.00;77.00;;;;;;5117724;28;20436;-74
2023/01/09 06:29:54;;;;;;;6.32;1.55;;;9.00;77.00;;;;;;5116491;28;20028;-72
2023/01/09 06:32:20;;;;;;;12.10;4.28;;;9.00;77.00;;;;;;5112422;28;20024;-73
2023/01/09 06:34:45;;;;;;;9.25;3.33;;;9.00;77.00;;;;;;5113947;28;20417;-74
2023/01/09 06:37:11;;;;;;;7.45;2.72;;;9.10;77.00;;;;;;5115239;28;20119;-73
2023/01/09 06:39:38;;;;;;;11.02;2.30;;;9.10;77.00;;;;;;5117387;28;20015;-73
2023/01/09 06:42:04;;;;;;;6.13;2.28;;;9.10;76.90;;;;;;5113259;28;20032;-73
2023/01/09 06:44:31;;;;;;;7.72;2.00;;;9.10;76.90;;;;;;5112326;28;20020;-73
2023/01/09 06:46:58;;;;;;;8.50;1.95;;;9.10;76.90;;;;;;5116355;28;20035;-73
2023/01/09 06:49:23;;;;;;;6.30;1.67;;;9.10;76.90;;;;;;5114706;28;20019;-73
2023/01/09 06:51:50;;;;;;;4.43;1.70;;;9.20;77.00;;;;;;5104770;28;20024;-73
2023/01/09 06:54:17;;;;;;;4.85;1.48;;;9.20;77.00;;;;;;5114707;28;20042;-73
2023/01/09 06:56:43;;;;;;;6.25;1.42;;;9.30;76.90;;;;;;5117479;28;20019;-75
2023/01/09 06:59:09;;;;;;;6.65;1.67;;;9.30;76.90;;;;;;5106438;28;20042;-75
2023/01/09 07:01:35;;;;;;;5.30;1.52;;;9.30;76.80;;;;;;5114661;28;20118;-74
2023/01/09 07:04:00;;;;;;;6.28;2.03;;;9.30;76.80;;;;;;5114835;28;20027;-75
2023/01/09 07:06:26;;;;;;;5.78;1.88;;;9.30;76.90;;;;;;5115297;28;20031;-74
2023/01/09 07:08:52;;;;;;;7.65;1.77;;;9.30;76.90;;;;;;5113991;28;20026;-74
2023/01/09 07:11:18;;;;;;;5.15;1.70;;;9.20;76.90;;;;;;5107668;28;20065;-74
2023/01/09 07:13:43;;;;;;;11.43;2.20;;;9.30;77.10;;;;;;5128043;27;20501;-72
2023/01/09 07:16:09;;;;;;;6.43;2.22;;;9.30;77.20;;;;;;5111857;27;20035;-72
2023/01/09 07:18:36;;;;;;;5.15;1.80;;;9.30;77.20;;;;;;5115446;27;20031;-73
2023/01/09 07:21:09;;;;;;;6.85;1.40;;;9.30;77.10;;;;;;5112764;28;20048;-73
2023/01/09 07:23:35;;;;;;;5.20;1.65;;;9.30;77.10;;;;;;5120399;27;20031;-75
2023/01/09 07:26:01;;;;;;;5.15;1.73;;;9.40;77.20;;;;;;5100183;28;20049;-75
2023/01/09 07:28:27;;;;;;;6.85;2.10;;;9.40;77.20;;;;;;5099285;28;20032;-75
2023/01/09 07:30:53;;;;;;;4.82;1.58;;;9.30;77.20;;;;;;5095938;28;20076;-74
2023/01/09 07:33:18;;;;;;;4.35;1.33;;;9.40;77.30;;;;;;5110415;28;20107;-73
2023/01/09 07:35:45;;;;;;;5.47;1.67;;;9.30;77.40;;;;;;5115448;27;20128;-74
2023/01/09 07:38:11;;;;;;;5.60;1.58;;;9.30;77.50;;;;;;5097148;28;20055;-73
2023/01/09 07:40:37;;;;;;;6.43;1.58;;;9.30;77.60;;;;;;5109275;28;20066;-72
2023/01/09 07:43:03;;;;;;;5.72;2.58;;;9.30;77.70;;;;;;5095957;28;20036;-73
2023/01/09 07:45:30;;;;;;;4.45;1.45;;;9.30;77.90;;;;;;5096039;28;20058;-73
2023/01/09 07:47:56;;;;;;;6.25;1.50;;;9.30;78.00;;;;;;5111022;28;20085;-72
2023/01/09 07:50:21;;;;;;;5.70;1.75;;;9.30;78.10;;;;;;5113651;28;20448;-75
2023/01/09 07:52:54;;;;;;;5.75;1.50;;;9.30;78.10;;;;;;5112490;28;20024;-74
2023/01/09 07:55:21;;;;;;;6.80;1.70;;;9.30;78.20;;;;;;5104681;28;20119;-73
2023/01/09 07:57:50;;;;;;;5.32;1.70;;;9.30;78.10;;;;;;5108220;28;20115;-72
2023/01/09 08:00:17;;;;;;;5.00;1.90;;;9.30;78.10;;;;;;5111241;28;20027;-74
2023/01/09 08:02:43;;;;;;;6.25;1.50;;;9.30;78.20;;;;;;5111236;28;20035;-78
2023/01/09 08:05:13;;;;;;;7.78;2.63;;;9.30;78.20;;;;;;5112742;28;20019;-73
2023/01/09 08:07:43;;;;;;;5.32;1.70;;;9.40;78.30;;;;;;5111562;28;20035;-77
2023/01/09 08:10:10;;;;;;;9.85;2.30;;;9.40;78.30;;;;;;5096093;28;20019;-75
2023/01/09 08:12:35;;;;;;;5.47;1.50;;;9.30;78.40;;;;;;5091673;28;20078;-72
2023/01/09 08:15:01;;;;;;;6.07;1.70;;;9.30;78.50;;;;;;5103795;27;20051;-72
2023/01/09 08:17:27;;;;;;;6.63;1.88;;;9.30;78.60;;;;;;5100939;27;20073;-75
2023/01/09 08:19:57;;;;;;;5.93;2.03;;;9.30;78.80;;;;;;5092809;28;20067;-77
2023/01/09 08:22:23;;;;;;;6.32;1.75;;;9.30;78.90;;;;;;5113224;27;20027;-74
2023/01/09 08:24:49;;;;;;;6.60;1.98;;;9.30;78.90;;;;;;5093200;28;20040;-75
2023/01/09 08:27:26;;;;;;;4.93;2.05;;;9.30;78.90;;;;;;5112243;28;20027;-76
2023/01/09 08:29:53;;;;;;;6.68;2.22;;;9.30;78.90;;;;;;5101598;28;20027;-75
2023/01/09 08:32:20;;;;;;;5.45;1.88;;;9.40;79.00;;;;;;5087138;28;20024;-74
2023/01/09 08:34:46;;;;;;;4.05;1.63;;;9.40;79.00;;;;;;5088864;28;20038;-75
2023/01/09 08:37:24;;;;;;;3.30;1.58;;;9.40;79.00;;;;;;5110951;28;20023;-76
2023/01/09 08:39:55;;;;;;;7.53;1.88;;;9.40;79.10;;;;;;5112045;28;20023;-75
2023/01/09 08:47:57;;;;;;;4.63;1.83;;;9.30;79.30;;;;;;5110527;28;20024;-74
2023/01/09 08:50:23;;;;;;;7.88;1.83;;;9.30;79.20;;;;;;5114207;28;20035;-73
2023/01/09 08:52:48;;;;;;;4.65;1.98;;;9.30;79.30;;;;;;5107383;28;20019;-73
2023/01/09 08:55:14;;;;;;;4.65;1.90;;;9.40;79.40;;;;;;5102660;28;20054;-72
2023/01/09 08:57:48;;;;;;;5.00;2.35;;;9.40;79.40;;;;;;5092471;28;20033;-73
2023/01/09 09:00:14;;;;;;;7.47;2.08;;;9.40;79.50;;;;;;5129344;27;20035;-72
2023/01/09 09:02:40;;;;;;;6.20;2.22;;;9.40;79.40;;;;;;5103894;28;20031;-74
2023/01/09 09:05:09;;;;;;;5.30;1.90;;;9.40;79.50;;;;;;5120067;28;20089;-75
2023/01/09 09:07:35;;;;;;;4.57;1.95;;;9.40;79.50;;;;;;5119552;28;20031;-74
2023/01/09 09:10:01;;;;;;;5.43;1.90;;;9.40;79.50;;;;;;5110663;28;20024;-74
2023/01/09 09:12:27;;;;;;;6.20;2.25;;;9.40;79.40;;;;;;5101340;28;20024;-74
2023/01/09 09:17:39;;;;;;;5.40;1.98;;;9.50;79.40;;;;;;5116416;28;20023;-73
2023/01/09 09:20:06;;;;;;;7.47;2.03;;;9.50;79.40;;;;;;5114950;28;20054;-74
2023/01/09 09:22:32;;;;;;;5.20;2.10;;;9.50;79.40;;;;;;5107395;28;20070;-73
2023/01/09 09:24:57;;;;;;;6.90;2.38;;;9.50;79.50;;;;;;5111710;27;20052;-74
2023/01/09 09:27:23;;;;;;;5.10;2.40;;;9.50;79.50;;;;;;5118847;28;20088;-73
2023/01/09 09:29:50;;;;;;;6.70;2.50;;;9.50;79.60;;;;;;5116491;28;20114;-73
2023/01/09 09:32:16;;;;;;;5.65;2.30;;;9.50;79.60;;;;;;5117242;28;20031;-73
2023/01/09 09:34:42;;;;;;;6.35;2.60;;;9.60;79.60;;;;;;5111499;28;20027;-73
2023/01/09 09:37:08;;;;;;;5.22;2.45;;;9.60;79.50;;;;;;5118176;28;20058;-74
2023/01/09 09:39:33;;;;;;;6.07;2.28;;;9.60;79.50;;;;;;5107714;28;20027;-73
2023/01/09 09:45:47;;;;;;;5.43;2.50;;;9.70;79.50;;;;;;5099286;28;20038;-73
2023/01/09 09:48:30;;;;;;;5.03;2.28;;;9.70;79.30;;;;;;5096111;28;20038;-73
2023/01/09 09:51:34;;;;;;;5.63;2.33;;;9.70;79.30;;;;;;5111358;28;20031;-73
2023/01/09 09:54:04;;;;;;;4.80;1.80;;;9.70;79.30;;;;;;5095449;28;20444;-75
2023/01/09 09:56:37;;;;;;;6.53;2.05;;;9.70;79.30;;;;;;5114406;28;20023;-75
2023/01/09 09:59:27;;;;;;;6.25;2.15;;;9.70;79.30;;;;;;5116961;28;20042;-75
2023/01/09 10:02:08;;;;;;;6.38;2.53;;;9.70;79.40;;;;;;5111405;28;20028;-75
2023/01/09 10:04:39;;;;;;;6.13;1.80;;;9.70;79.30;;;;;;5096229;28;20074;-75
2023/01/09 10:07:09;;;;;;;4.95;1.65;;;9.70;79.30;;;;;;5113182;28;20459;-75
2023/01/09 10:09:53;;;;;;;6.05;2.00;;;9.70;79.40;;;;;;5116125;28;20104;-75
2023/01/09 10:12:31;;;;;;;4.90;1.80;;;9.80;79.50;;;;;;5115344;28;20353;-75
2023/01/09 10:15:18;;;;;;;5.22;1.92;;;9.80;79.50;;;;;;5115829;28;20027;-75
2023/01/09 10:18:16;;;;;;;5.63;1.92;;;9.80;79.50;;;;;;5112733;28;20042;-75
2023/01/09 10:20:55;;;;;;;5.40;1.88;;;9.80;79.60;;;;;;5108208;28;20082;-75
2023/01/09 10:23:49;;;;;;;6.32;2.35;;;9.80;79.50;;;;;;5116377;28;20023;-75
2023/01/09 10:26:45;;;;;;;9.40;2.58;;;9.90;79.50;;;;;;5112350;28;20118;-75
2023/01/09 10:29:29;;;;;;;6.72;2.22;;;10.00;79.40;;;;;;5115935;28;20023;-75
2023/01/09 10:32:04;;;;;;;7.18;2.70;;;10.00;79.30;;;;;;5115451;28;20138;-75
2023/01/09 10:34:50;;;;;;;6.60;3.03;;;10.10;79.30;;;;;;5117034;28;20089;-75
2023/01/09 10:37:43;;;;;;;8.35;2.67;;;10.20;79.40;;;;;;5111076;28;20356;-76
2023/01/09 10:40:23;;;;;;;9.00;2.55;;;10.20;79.20;;;;;;5117369;27;20028;-76
2023/01/09 10:43:01;;;;;;;5.55;2.60;;;10.20;79.20;;;;;;5112945;28;20103;-76
2023/01/09 10:45:29;;;;;;;7.05;2.60;;;10.20;79.10;;;;;;5115368;28;20030;-75
2023/01/09 10:48:30;;;;;;;6.50;2.47;;;10.20;79.10;;;;;;5115910;28;20063;-76
2023/01/09 10:50:56;;;;;;;5.43;2.10;;;10.20;79.10;;;;;;5113873;28;20110;-75
2023/01/09 10:53:26;;;;;;;6.25;2.13;;;10.20;79.10;;;;;;5113923;28;20505;-76
2023/01/09 10:55:57;;;;;;;6.43;2.53;;;10.20;79.10;;;;;;5116329;28;20027;-75
2023/01/09 10:58:24;;;;;;;;;;;10.20;79.20;;;;;;5115808;28;20028;-75
2023/01/09 11:00:50;;;;;;;5.07;1.92;;;10.20;79.20;;;;;;5108602;28;19965;-75
2023/01/09 11:03:34;;;;;;;4.45;1.88;;;10.20;79.20;;;;;;5114800;28;20026;-73
2023/01/09 11:06:02;;;;;;;7.07;2.53;;;10.20;79.40;;;;;;5116559;28;20036;-74
2023/01/09 11:08:41;;;;;;;5.68;2.35;;;10.20;79.30;;;;;;5097910;28;20070;-75
2023/01/09 11:11:11;;;;;;;4.63;2.10;;;10.20;79.30;;;;;;5112686;28;20020;-75
2023/01/09 11:13:42;;;;;;;8.43;2.38;;;10.40;79.10;;;;;;5116217;28;20031;-75
2023/01/09 11:16:20;;;;;;;7.45;2.33;;;10.70;78.80;;;;;;5100398;27;20368;-75
2023/01/09 11:19:00;;;;;;;5.15;2.30;;;10.90;78.30;;;;;;5111063;28;20517;-75
2023/01/09 11:21:38;;;;;;;3.72;1.48;;;11.10;78.10;;;;;;5104482;28;20441;-75
2023/01/09 11:24:22;;;;;;;7.15;1.90;;;11.20;77.70;;;;;;5116679;28;20039;-75
2023/01/09 11:26:51;;;;;;;5.70;1.88;;;11.30;77.50;;;;;;5115870;28;20027;-75
2023/01/09 11:29:27;;;;;;;4.85;1.67;;;11.30;77.20;;;;;;5116834;28;20023;-75
2023/01/09 11:31:57;;;;;;;6.53;2.13;;;11.30;77.30;;;;;;5098612;28;20020;-74
2023/01/09 11:34:45;;;;;;;4.20;1.73;;;11.40;77.30;;;;;;5114881;28;20028;-74
2023/01/09 11:37:17;;;;;;;4.72;1.75;;;11.40;77.20;;;;;;5114894;28;20068;-76
2023/01/09 11:39:48;;;;;;;5.13;1.90;;;11.40;77.20;;;;;;5106432;28;20165;-75
2023/01/09 11:45:33;;;;;;;6.47;1.83;;;11.10;77.30;;;;;;5106748;28;20091;-75
2023/01/09 11:48:17;;;;;;;5.10;1.80;;;11.00;77.60;;;;;;5102697;28;20065;-75
2023/01/09 11:50:58;;;;;;;4.70;2.10;;;11.00;77.60;;;;;;5115869;28;20027;-75
2023/01/09 11:53:42;;;;;;;5.43;2.03;;;11.00;77.60;;;;;;5117467;28;20020;-74
2023/01/09 11:56:13;;;;;;;5.65;2.30;;;11.00;77.60;;;;;;5127394;28;20024;-75
2023/01/09 11:58:47;;;;;;;5.07;1.73;;;11.10;77.40;;;;;;5124362;28;20028;-75
2023/01/09 12:01:15;;;;;;;5.70;1.70;;;11.10;77.40;;;;;;5117923;28;20038;-75
2023/01/09 12:04:16;;;;;;;4.63;1.70;;;11.10;77.30;;;;;;5098484;28;20032;-76
2023/01/09 12:07:10;;;;;;;6.38;1.98;;;11.20;77.20;;;;;;5084343;28;20036;-75
2023/01/09 12:10:01;;;;;;;4.03;1.52;;;11.10;77.00;;;;;;5106242;28;20019;-76
2023/01/09 12:12:48;;;;;;;2.90;1.50;;;11.10;77.20;;;;;;5098588;28;20085;-75
2023/01/09 12:15:44;;;;;;;4.97;1.90;;;11.10;77.20;;;;;;5114814;28;20019;-75
2023/01/09 12:18:53;;;;;;;8.52;2.15;;;11.10;77.20;;;;;;5109909;28;20061;-75
2023/01/09 12:21:41;;;;;;;3.38;1.48;;;11.20;77.20;;;;;;5100166;28;20039;-74
2023/01/09 12:24:24;;;;;;;7.05;2.10;;;11.20;77.20;;;;;;5114725;28;20045;-75
2023/01/09 12:27:09;;;;;;;4.50;1.55;;;11.20;77.10;;;;;;5107321;28;20023;-73
2023/01/09 12:30:12;;;;;;;4.93;1.45;;;11.20;77.10;;;;;;5094765;28;20043;-74
2023/01/09 12:33:07;;;;;;;7.53;2.15;;;11.20;77.20;;;;;;5098839;28;20093;-74
2023/01/09 12:35:44;;;;;;;7.03;1.77;;;11.20;77.20;;;;;;5101817;28;20058;-74
2023/01/09 12:38:13;;;;;;;8.60;1.80;;;11.20;77.20;;;;;;5110440;28;20028;-75
2023/01/09 12:40:47;;;;;;;5.28;1.70;;;11.20;77.20;;;;;;5110523;28;20035;-74
2023/01/09 12:43:38;;;;;;;6.63;2.45;;;11.20;77.20;;;;;;5113669;28;20109;-74
2023/01/09 12:46:25;;;;;;;6.65;2.25;;;11.20;77.40;;;;;;5106017;28;20024;-73
2023/01/09 12:49:22;;;;;;;7.65;2.00;;;11.10;77.40;;;;;;5111279;28;20118;-74
2023/01/09 12:52:00;;;;;;;7.95;2.92;;;11.10;77.60;;;;;;5107345;28;20045;-74
2023/01/09 12:54:48;;;;;;;5.22;1.98;;;11.00;77.60;;;;;;5113789;28;20481;-74
2023/01/09 12:57:42;;;;;;;10.18;2.33;;;11.00;77.70;;;;;;5111677;28;20035;-76
2023/01/09 13:00:17;;;;;;;6.57;2.22;;;11.00;77.60;;;;;;5111247;28;20046;-75
2023/01/09 13:03:08;;;;;;;8.65;2.40;;;11.00;77.70;;;;;;5111953;28;20059;-75
2023/01/09 13:05:41;;;;;;;9.75;2.80;;;11.10;77.70;;;;;;5114509;28;20039;-75
2023/01/09 13:08:42;;;;;;;8.48;2.55;;;11.10;77.70;;;;;;5113506;28;20031;-75
2023/01/09 13:11:32;;;;;;;5.75;2.10;;;11.10;77.80;;;;;;5120073;27;20035;-75
2023/01/09 13:14:10;;;;;;;7.75;2.22;;;11.00;77.80;;;;;;5114172;28;20042;-74
2023/01/09 13:16:41;;;;;;;6.65;1.92;;;11.00;77.90;;;;;;5108784;28;20074;-75
2023/01/09 13:19:47;;;;;;;10.30;2.78;;;11.00;77.90;;;;;;5113355;28;20031;-75
2023/01/09 13:22:14;;;;;;;8.40;2.35;;;11.10;77.90;;;;;;5091451;28;20095;-75
2023/01/09 13:25:04;;;;;;;8.50;2.70;;;11.10;77.90;;;;;;5075759;28;20051;-75
2023/01/09 13:27:38;;;;;;;5.82;1.90;;;11.10;77.80;;;;;;5098886;28;20460;-75
2023/01/09 13:30:29;;;;;;;9.35;2.10;;;11.10;77.70;;;;;;5109362;28;20121;-74
2023/01/09 13:33:10;;;;;;;5.03;1.58;;;11.10;77.70;;;;;;5107184;28;20360;-74
2023/01/09 13:35:48;;;;;;;6.73;2.10;;;11.20;77.70;;;;;;5101555;28;20437;-74